sensor_id;sensor_type;location;lat;lon;timestamp;temperature;humidity
80577;DHT22;69937;52.420;10.538;2023-08-30T00:02:15;13.30;72.80
80577;DHT22;69937;52.420;10.538;2023-08-30T00:07:15;13.20;73.00
80577;DHT22;69937;52.420;10.538;2023-08-30T00:12:16;13.10;72.90
80577;DHT22;69937;52.420;10.538;2023-08-30T00:17:16;13.10;72.40
80577;DHT22;69937;52.420;10.538;2023-08-30T00:22:17;13.00;72.30
80577;DHT22;69937;52.420;10.538;2023-08-30T00:27:17;13.00;72.60
80577;DHT22;69937;52.420;10.538;2023-08-30T00:32:18;12.90;72.00
80577;DHT22;69937;52.420;10.538;2023-08-30T00:37:18;12.80;71.70
80577;DHT22;69937;52.420;10.538;2023-08-30T00:42:19;12.70;72.40
80577;DHT22;69937;52.420;10.538;2023-08-30T00:47:20;12.50;73.40
80577;DHT22;69937;52.420;10.538;2023-08-30T00:52:21;12.50;74.60
80577;DHT22;69937;52.420;10.538;2023-08-30T00:57:22;12.50;74.90
80577;DHT22;69937;52.420;10.538;2023-08-30T01:02:23;12.40;74.60
80577;DHT22;69937;52.420;10.538;2023-08-30T01:07:24;12.40;74.60
80577;DHT22;69937;52.420;10.538;2023-08-30T01:12:31;12.30;75.00
80577;DHT22;69937;52.420;10.538;2023-08-30T01:17:35;12.30;74.70
80577;DHT22;69937;52.420;10.538;2023-08-30T01:23:00;12.20;74.90
80577;DHT22;69937;52.420;10.538;2023-08-30T01:28:04;12.30;74.90
80577;DHT22;69937;52.420;10.538;2023-08-30T01:33:08;12.20;74.80
80577;DHT22;69937;52.420;10.538;2023-08-30T01:38:09;12.20;75.10
80577;DHT22;69937;52.420;10.538;2023-08-30T01:43:11;12.10;74.00
80577;DHT22;69937;52.420;10.538;2023-08-30T01:48:14;12.00;73.90
80577;DHT22;69937;52.420;10.538;2023-08-30T01:53:16;11.90;74.90
80577;DHT22;69937;52.420;10.538;2023-08-30T01:58:17;11.90;74.90
80577;DHT22;69937;52.420;10.538;2023-08-30T02:03:17;11.90;75.10
80577;DHT22;69937;52.420;10.538;2023-08-30T02:08:19;11.90;74.40
80577;DHT22;69937;52.420;10.538;2023-08-30T02:13:26;11.70;74.30
80577;DHT22;69937;52.420;10.538;2023-08-30T02:18:27;11.80;75.70
80577;DHT22;69937;52.420;10.538;2023-08-30T02:23:27;11.70;75.30
80577;DHT22;69937;52.420;10.538;2023-08-30T02:28:28;11.60;75.00
80577;DHT22;69937;52.420;10.538;2023-08-30T02:33:29;11.50;75.70
80577;DHT22;69937;52.420;10.538;2023-08-30T02:38:29;11.40;76.30
80577;DHT22;69937;52.420;10.538;2023-08-30T02:43:30;11.40;77.10
80577;DHT22;69937;52.420;10.538;2023-08-30T02:48:31;11.40;77.50
80577;DHT22;69937;52.420;10.538;2023-08-30T02:53:32;11.50;77.10
80577;DHT22;69937;52.420;10.538;2023-08-30T02:58:32;11.50;76.90
80577;DHT22;69937;52.420;10.538;2023-08-30T03:03:33;11.40;77.10
80577;DHT22;69937;52.420;10.538;2023-08-30T03:08:33;11.40;77.50
80577;DHT22;69937;52.420;10.538;2023-08-30T03:13:34;11.30;77.80
80577;DHT22;69937;52.420;10.538;2023-08-30T03:18:34;11.30;78.00
80577;DHT22;69937;52.420;10.538;2023-08-30T03:23:35;11.30;77.50
80577;DHT22;69937;52.420;10.538;2023-08-30T03:28:37;11.40;76.60
80577;DHT22;69937;52.420;10.538;2023-08-30T03:33:37;11.30;76.40
80577;DHT22;69937;52.420;10.538;2023-08-30T03:38:38;11.20;76.20
80577;DHT22;69937;52.420;10.538;2023-08-30T03:43:39;11.10;76.10
80577;DHT22;69937;52.420;10.538;2023-08-30T03:48:40;11.10;75.90
80577;DHT22;69937;52.420;10.538;2023-08-30T03:53:40;11.00;76.40
80577;DHT22;69937;52.420;10.538;2023-08-30T03:58:41;11.00;76.10
80577;DHT22;69937;52.420;10.538;2023-08-30T04:03:41;11.00;76.20
80577;DHT22;69937;52.420;10.538;2023-08-30T04:08:42;10.90;77.00
80577;DHT22;69937;52.420;10.538;2023-08-30T04:13:42;10.90;76.70
80577;DHT22;69937;52.420;10.538;2023-08-30T04:18:43;10.90;77.00
80577;DHT22;69937;52.420;10.538;2023-08-30T04:23:43;10.90;77.20
80577;DHT22;69937;52.420;10.538;2023-08-30T04:28:44;10.90;77.00
80577;DHT22;69937;52.420;10.538;2023-08-30T04:33:45;10.80;76.60
80577;DHT22;69937;52.420;10.538;2023-08-30T04:38:46;10.70;77.80
80577;DHT22;69937;52.420;10.538;2023-08-30T04:43:46;10.70;78.40
80577;DHT22;69937;52.420;10.538;2023-08-30T04:48:47;10.70;78.70
80577;DHT22;69937;52.420;10.538;2023-08-30T04:53:47;10.90;78.50
80577;DHT22;69937;52.420;10.538;2023-08-30T04:58:48;10.90;77.60
80577;DHT22;69937;52.420;10.538;2023-08-30T05:03:49;11.00;77.50
80577;DHT22;69937;52.420;10.538;2023-08-30T05:08:50;11.10;77.30
80577;DHT22;69937;52.420;10.538;2023-08-30T05:13:51;11.10;76.90
80577;DHT22;69937;52.420;10.538;2023-08-30T05:18:51;11.00;77.50
80577;DHT22;69937;52.420;10.538;2023-08-30T05:23:52;11.10;78.60
80577;DHT22;69937;52.420;10.538;2023-08-30T05:28:52;11.30;78.60
80577;DHT22;69937;52.420;10.538;2023-08-30T05:33:53;11.50;78.50
80577;DHT22;69937;52.420;10.538;2023-08-30T05:38:54;11.70;77.90
80577;DHT22;69937;52.420;10.538;2023-08-30T05:43:54;11.90;77.50
80577;DHT22;69937;52.420;10.538;2023-08-30T05:48:55;12.20;77.50
80577;DHT22;69937;52.420;10.538;2023-08-30T05:53:55;12.40;77.10
80577;DHT22;69937;52.420;10.538;2023-08-30T05:58:56;12.70;76.60
80577;DHT22;69937;52.420;10.538;2023-08-30T06:03:56;12.90;75.90
80577;DHT22;69937;52.420;10.538;2023-08-30T06:08:57;13.10;75.70
80577;DHT22;69937;52.420;10.538;2023-08-30T06:13:58;13.30;75.20
80577;DHT22;69937;52.420;10.538;2023-08-30T06:19:02;13.50;74.70
80577;DHT22;69937;52.420;10.538;2023-08-30T06:24:03;13.50;75.20
80577;DHT22;69937;52.420;10.538;2023-08-30T06:29:03;13.70;74.50
80577;DHT22;69937;52.420;10.538;2023-08-30T06:34:04;13.90;73.80
80577;DHT22;69937;52.420;10.538;2023-08-30T06:39:05;14.10;74.10
80577;DHT22;69937;52.420;10.538;2023-08-30T06:44:05;14.20;72.60
80577;DHT22;69937;52.420;10.538;2023-08-30T06:49:06;14.30;72.80
80577;DHT22;69937;52.420;10.538;2023-08-30T06:54:09;14.50;73.20
80577;DHT22;69937;52.420;10.538;2023-08-30T06:59:10;14.80;72.60
80577;DHT22;69937;52.420;10.538;2023-08-30T07:04:10;15.00;71.90
80577;DHT22;69937;52.420;10.538;2023-08-30T07:09:11;15.30;71.70
80577;DHT22;69937;52.420;10.538;2023-08-30T07:14:12;15.40;71.10
80577;DHT22;69937;52.420;10.538;2023-08-30T07:19:16;15.60;70.30
80577;DHT22;69937;52.420;10.538;2023-08-30T07:24:16;15.80;69.40
80577;DHT22;69937;52.420;10.538;2023-08-30T07:29:17;15.90;68.40
80577;DHT22;69937;52.420;10.538;2023-08-30T07:34:17;16.00;68.70
80577;DHT22;69937;52.420;10.538;2023-08-30T07:39:18;16.20;68.90
80577;DHT22;69937;52.420;10.538;2023-08-30T07:44:18;16.40;68.20
80577;DHT22;69937;52.420;10.538;2023-08-30T07:49:20;16.30;68.20
80577;DHT22;69937;52.420;10.538;2023-08-30T07:54:21;16.40;67.90
80577;DHT22;69937;52.420;10.538;2023-08-30T07:59:21;16.50;68.20
80577;DHT22;69937;52.420;10.538;2023-08-30T08:04:22;16.60;66.90
80577;DHT22;69937;52.420;10.538;2023-08-30T08:09:22;16.60;67.00
80577;DHT22;69937;52.420;10.538;2023-08-30T08:14:24;16.90;66.10
80577;DHT22;69937;52.420;10.538;2023-08-30T08:19:25;17.00;65.90
80577;DHT22;69937;52.420;10.538;2023-08-30T08:24:25;17.30;64.90
80577;DHT22;69937;52.420;10.538;2023-08-30T08:29:27;17.60;63.70
80577;DHT22;69937;52.420;10.538;2023-08-30T08:34:28;17.70;62.90
80577;DHT22;69937;52.420;10.538;2023-08-30T08:39:30;18.00;62.20
80577;DHT22;69937;52.420;10.538;2023-08-30T08:44:32;18.30;61.90
80577;DHT22;69937;52.420;10.538;2023-08-30T08:49:32;18.70;60.70
80577;DHT22;69937;52.420;10.538;2023-08-30T08:54:33;18.80;60.30
80577;DHT22;69937;52.420;10.538;2023-08-30T08:59:34;18.80;60.00
80577;DHT22;69937;52.420;10.538;2023-08-30T09:04:35;18.90;60.50
80577;DHT22;69937;52.420;10.538;2023-08-30T09:09:36;19.30;59.20
80577;DHT22;69937;52.420;10.538;2023-08-30T09:14:37;19.80;58.60
80577;DHT22;69937;52.420;10.538;2023-08-30T09:19:37;20.30;57.40
80577;DHT22;69937;52.420;10.538;2023-08-30T09:24:41;20.70;55.80
80577;DHT22;69937;52.420;10.538;2023-08-30T09:29:42;20.90;55.30
80577;DHT22;69937;52.420;10.538;2023-08-30T09:34:47;21.00;56.00
80577;DHT22;69937;52.420;10.538;2023-08-30T09:39:49;21.10;54.90
80577;DHT22;69937;52.420;10.538;2023-08-30T09:44:50;21.10;54.10
80577;DHT22;69937;52.420;10.538;2023-08-30T09:49:51;21.20;52.70
80577;DHT22;69937;52.420;10.538;2023-08-30T09:54:54;21.50;53.20
80577;DHT22;69937;52.420;10.538;2023-08-30T09:59:56;21.80;52.50
80577;DHT22;69937;52.420;10.538;2023-08-30T10:04:58;21.90;51.50
80577;DHT22;69937;52.420;10.538;2023-08-30T10:09:59;21.90;51.30
80577;DHT22;69937;52.420;10.538;2023-08-30T10:15:00;21.90;51.00
80577;DHT22;69937;52.420;10.538;2023-08-30T10:20:05;21.60;51.60
80577;DHT22;69937;52.420;10.538;2023-08-30T10:25:10;21.70;51.60
80577;DHT22;69937;52.420;10.538;2023-08-30T10:30:12;21.50;51.30
80577;DHT22;69937;52.420;10.538;2023-08-30T10:35:15;21.50;51.20
80577;DHT22;69937;52.420;10.538;2023-08-30T10:40:16;21.70;51.90
80577;DHT22;69937;52.420;10.538;2023-08-30T10:45:23;21.70;51.80
80577;DHT22;69937;52.420;10.538;2023-08-30T10:50:29;21.70;51.90
80577;DHT22;69937;52.420;10.538;2023-08-30T10:55:31;22.10;52.00
80577;DHT22;69937;52.420;10.538;2023-08-30T11:00:31;21.90;52.40
80577;DHT22;69937;52.420;10.538;2023-08-30T11:05:32;22.00;52.20
80577;DHT22;69937;52.420;10.538;2023-08-30T11:10:33;22.10;51.40
80577;DHT22;69937;52.420;10.538;2023-08-30T11:15:34;22.30;51.90
80577;DHT22;69937;52.420;10.538;2023-08-30T11:20:34;22.30;50.50
80577;DHT22;69937;52.420;10.538;2023-08-30T11:25:35;22.30;50.90
80577;DHT22;69937;52.420;10.538;2023-08-30T11:30:40;22.70;51.30
80577;DHT22;69937;52.420;10.538;2023-08-30T11:35:40;23.10;50.50
80577;DHT22;69937;52.420;10.538;2023-08-30T11:40:41;23.50;50.40
80577;DHT22;69937;52.420;10.538;2023-08-30T11:45:42;23.60;49.60
80577;DHT22;69937;52.420;10.538;2023-08-30T11:50:43;24.20;49.40
80577;DHT22;69937;52.420;10.538;2023-08-30T11:55:45;24.20;46.70
80577;DHT22;69937;52.420;10.538;2023-08-30T12:00:50;24.40;46.60
80577;DHT22;69937;52.420;10.538;2023-08-30T12:05:51;24.40;46.90
80577;DHT22;69937;52.420;10.538;2023-08-30T12:10:52;24.70;47.10
80577;DHT22;69937;52.420;10.538;2023-08-30T12:15:54;24.60;46.10
80577;DHT22;69937;52.420;10.538;2023-08-30T12:20:56;24.50;47.00
80577;DHT22;69937;52.420;10.538;2023-08-30T12:26:01;24.00;47.10
80577;DHT22;69937;52.420;10.538;2023-08-30T12:31:03;24.20;47.00
80577;DHT22;69937;52.420;10.538;2023-08-30T12:36:10;24.60;46.60
80577;DHT22;69937;52.420;10.538;2023-08-30T12:41:11;24.50;47.10
80577;DHT22;69937;52.420;10.538;2023-08-30T12:46:11;23.60;48.80
80577;DHT22;69937;52.420;10.538;2023-08-30T12:51:12;23.00;49.50
80577;DHT22;69937;52.420;10.538;2023-08-30T12:56:13;22.40;50.00
80577;DHT22;69937;52.420;10.538;2023-08-30T13:01:14;22.20;50.90
80577;DHT22;69937;52.420;10.538;2023-08-30T13:06:15;21.90;51.60
80577;DHT22;69937;52.420;10.538;2023-08-30T13:11:15;21.60;52.30
80577;DHT22;69937;52.420;10.538;2023-08-30T13:16:16;21.50;52.70
80577;DHT22;69937;52.420;10.538;2023-08-30T13:21:16;21.30;53.30
80577;DHT22;69937;52.420;10.538;2023-08-30T13:26:17;21.10;54.00
80577;DHT22;69937;52.420;10.538;2023-08-30T13:31:17;20.80;54.30
80577;DHT22;69937;52.420;10.538;2023-08-30T13:36:18;20.70;55.40
80577;DHT22;69937;52.420;10.538;2023-08-30T13:41:18;20.60;56.30
80577;DHT22;69937;52.420;10.538;2023-08-30T13:46:19;20.60;57.10
80577;DHT22;69937;52.420;10.538;2023-08-30T13:51:23;20.70;56.30
80577;DHT22;69937;52.420;10.538;2023-08-30T13:56:24;20.80;55.60
80577;DHT22;69937;52.420;10.538;2023-08-30T14:01:25;20.70;55.90
80577;DHT22;69937;52.420;10.538;2023-08-30T14:06:25;21.20;54.80
80577;DHT22;69937;52.420;10.538;2023-08-30T14:11:26;21.30;54.10
80577;DHT22;69937;52.420;10.538;2023-08-30T14:16:26;21.60;54.60
80577;DHT22;69937;52.420;10.538;2023-08-30T14:21:27;22.00;53.30
80577;DHT22;69937;52.420;10.538;2023-08-30T14:26:28;22.80;52.40
80577;DHT22;69937;52.420;10.538;2023-08-30T14:31:30;24.00;50.00
80577;DHT22;69937;52.420;10.538;2023-08-30T14:36:31;25.10;47.50
80577;DHT22;69937;52.420;10.538;2023-08-30T14:41:32;25.60;46.90
80577;DHT22;69937;52.420;10.538;2023-08-30T14:46:33;25.50;46.90
80577;DHT22;69937;52.420;10.538;2023-08-30T14:51:33;25.20;47.60
80577;DHT22;69937;52.420;10.538;2023-08-30T14:56:34;24.70;48.00
80577;DHT22;69937;52.420;10.538;2023-08-30T15:01:34;24.10;48.90
80577;DHT22;69937;52.420;10.538;2023-08-30T15:06:35;23.90;49.50
80577;DHT22;69937;52.420;10.538;2023-08-30T15:11:37;23.60;50.20
80577;DHT22;69937;52.420;10.538;2023-08-30T15:16:38;23.40;50.30
80577;DHT22;69937;52.420;10.538;2023-08-30T15:21:38;23.20;50.80
80577;DHT22;69937;52.420;10.538;2023-08-30T15:26:39;23.00;50.90
80577;DHT22;69937;52.420;10.538;2023-08-30T15:31:39;22.70;49.30
80577;DHT22;69937;52.420;10.538;2023-08-30T15:36:40;22.30;49.40
80577;DHT22;69937;52.420;10.538;2023-08-30T15:41:41;22.20;50.40
80577;DHT22;69937;52.420;10.538;2023-08-30T15:46:41;22.00;50.40
80577;DHT22;69937;52.420;10.538;2023-08-30T15:51:42;21.80;51.00
80577;DHT22;69937;52.420;10.538;2023-08-30T15:56:42;21.70;52.00
80577;DHT22;69937;52.420;10.538;2023-08-30T16:01:46;21.50;51.70
80577;DHT22;69937;52.420;10.538;2023-08-30T16:06:47;21.10;54.60
80577;DHT22;69937;52.420;10.538;2023-08-30T16:11:47;20.50;60.70
80577;DHT22;69937;52.420;10.538;2023-08-30T16:16:48;19.90;64.20
80577;DHT22;69937;52.420;10.538;2023-08-30T16:21:48;19.50;67.80
80577;DHT22;69937;52.420;10.538;2023-08-30T16:26:52;19.10;66.50
80577;DHT22;69937;52.420;10.538;2023-08-30T16:31:56;18.90;65.70
80577;DHT22;69937;52.420;10.538;2023-08-30T16:36:56;18.70;66.60
80577;DHT22;69937;52.420;10.538;2023-08-30T16:41:57;18.30;71.60
80577;DHT22;69937;52.420;10.538;2023-08-30T16:46:57;17.90;73.90
80577;DHT22;69937;52.420;10.538;2023-08-30T16:51:58;17.70;74.60
80577;DHT22;69937;52.420;10.538;2023-08-30T16:56:58;17.50;74.00
80577;DHT22;69937;52.420;10.538;2023-08-30T17:01:59;17.40;73.20
80577;DHT22;69937;52.420;10.538;2023-08-30T17:07:00;17.20;73.80
80577;DHT22;69937;52.420;10.538;2023-08-30T17:12:01;17.10;74.40
80577;DHT22;69937;52.420;10.538;2023-08-30T17:17:03;17.20;73.20
80577;DHT22;69937;52.420;10.538;2023-08-30T17:22:03;17.20;73.40
80577;DHT22;69937;52.420;10.538;2023-08-30T17:27:04;16.80;73.60
80577;DHT22;69937;52.420;10.538;2023-08-30T17:32:05;16.50;74.10
80577;DHT22;69937;52.420;10.538;2023-08-30T17:37:06;16.10;75.80
80577;DHT22;69937;52.420;10.538;2023-08-30T17:42:07;15.80;77.10
80577;DHT22;69937;52.420;10.538;2023-08-30T17:47:08;15.80;77.60
80577;DHT22;69937;52.420;10.538;2023-08-30T17:52:09;15.80;77.40
80577;DHT22;69937;52.420;10.538;2023-08-30T17:57:09;15.60;77.80
80577;DHT22;69937;52.420;10.538;2023-08-30T18:02:11;15.60;77.90
80577;DHT22;69937;52.420;10.538;2023-08-30T18:07:14;15.50;77.80
80577;DHT22;69937;52.420;10.538;2023-08-30T18:12:15;15.30;78.70
80577;DHT22;69937;52.420;10.538;2023-08-30T18:17:15;15.30;78.30
80577;DHT22;69937;52.420;10.538;2023-08-30T18:22:17;15.20;78.80
80577;DHT22;69937;52.420;10.538;2023-08-30T18:27:18;14.70;77.00
80577;DHT22;69937;52.420;10.538;2023-08-30T18:32:18;14.60;75.90
80577;DHT22;69937;52.420;10.538;2023-08-30T18:37:19;14.10;76.60
80577;DHT22;69937;52.420;10.538;2023-08-30T18:42:19;14.10;76.60
80577;DHT22;69937;52.420;10.538;2023-08-30T18:47:20;13.90;76.70
80577;DHT22;69937;52.420;10.538;2023-08-30T18:52:21;13.90;77.30
80577;DHT22;69937;52.420;10.538;2023-08-30T18:57:22;13.90;76.80
80577;DHT22;69937;52.420;10.538;2023-08-30T19:02:23;13.90;77.70
80577;DHT22;69937;52.420;10.538;2023-08-30T19:07:23;13.90;77.10
80577;DHT22;69937;52.420;10.538;2023-08-30T19:12:24;14.00;77.80
80577;DHT22;69937;52.420;10.538;2023-08-30T19:17:24;14.00;78.60
80577;DHT22;69937;52.420;10.538;2023-08-30T19:22:25;14.00;78.70
80577;DHT22;69937;52.420;10.538;2023-08-30T19:27:26;14.10;78.40
80577;DHT22;69937;52.420;10.538;2023-08-30T19:32:28;14.10;78.00
80577;DHT22;69937;52.420;10.538;2023-08-30T19:37:28;14.20;77.20
80577;DHT22;69937;52.420;10.538;2023-08-30T19:42:29;14.30;77.70
80577;DHT22;69937;52.420;10.538;2023-08-30T19:47:31;14.20;77.50
80577;DHT22;69937;52.420;10.538;2023-08-30T19:52:31;14.30;77.60
80577;DHT22;69937;52.420;10.538;2023-08-30T19:57:32;14.30;77.10
80577;DHT22;69937;52.420;10.538;2023-08-30T20:02:34;14.30;77.20
80577;DHT22;69937;52.420;10.538;2023-08-30T20:07:34;14.30;76.30
80577;DHT22;69937;52.420;10.538;2023-08-30T20:12:35;14.30;77.20
80577;DHT22;69937;52.420;10.538;2023-08-30T20:17:35;14.40;77.70
80577;DHT22;69937;52.420;10.538;2023-08-30T20:22:36;14.30;78.00
80577;DHT22;69937;52.420;10.538;2023-08-30T20:27:41;14.10;77.80
80577;DHT22;69937;52.420;10.538;2023-08-30T20:32:41;14.20;78.20
80577;DHT22;69937;52.420;10.538;2023-08-30T20:37:42;14.30;78.50
80577;DHT22;69937;52.420;10.538;2023-08-30T20:42:43;14.20;78.20
80577;DHT22;69937;52.420;10.538;2023-08-30T20:47:43;14.10;79.00
80577;DHT22;69937;52.420;10.538;2023-08-30T20:52:45;14.10;78.80
80577;DHT22;69937;52.420;10.538;2023-08-30T20:57:45;14.00;79.20
80577;DHT22;69937;52.420;10.538;2023-08-30T21:02:46;13.90;79.50
80577;DHT22;69937;52.420;10.538;2023-08-30T21:07:46;14.00;79.60
80577;DHT22;69937;52.420;10.538;2023-08-30T21:12:47;14.00;79.40
80577;DHT22;69937;52.420;10.538;2023-08-30T21:17:47;14.00;79.30
80577;DHT22;69937;52.420;10.538;2023-08-30T21:22:49;14.00;79.40
80577;DHT22;69937;52.420;10.538;2023-08-30T21:27:50;14.00;79.50
80577;DHT22;69937;52.420;10.538;2023-08-30T21:32:53;14.00;79.30
80577;DHT22;69937;52.420;10.538;2023-08-30T21:37:53;14.00;79.10
80577;DHT22;69937;52.420;10.538;2023-08-30T21:42:54;13.90;79.00
80577;DHT22;69937;52.420;10.538;2023-08-30T21:47:54;13.90;78.60
80577;DHT22;69937;52.420;10.538;2023-08-30T21:52:55;13.90;78.70
80577;DHT22;69937;52.420;10.538;2023-08-30T21:57:55;13.90;78.60
80577;DHT22;69937;52.420;10.538;2023-08-30T22:02:56;13.90;78.90
80577;DHT22;69937;52.420;10.538;2023-08-30T22:07:56;13.90;79.00
80577;DHT22;69937;52.420;10.538;2023-08-30T22:12:57;13.90;79.10
80577;DHT22;69937;52.420;10.538;2023-08-30T22:17:57;13.90;79.10
80577;DHT22;69937;52.420;10.538;2023-08-30T22:22:58;13.90;79.00
80577;DHT22;69937;52.420;10.538;2023-08-30T22:27:58;13.90;79.20
80577;DHT22;69937;52.420;10.538;2023-08-30T22:33:02;13.90;79.10
80577;DHT22;69937;52.420;10.538;2023-08-30T22:38:03;13.90;78.80
80577;DHT22;69937;52.420;10.538;2023-08-30T22:43:05;13.90;78.90
80577;DHT22;69937;52.420;10.538;2023-08-30T22:48:06;13.90;79.10
80577;DHT22;69937;52.420;10.538;2023-08-30T22:53:07;13.90;79.20
80577;DHT22;69937;52.420;10.538;2023-08-30T22:58:07;13.80;79.30
80577;DHT22;69937;52.420;10.538;2023-08-30T23:03:08;13.70;79.50
80577;DHT22;69937;52.420;10.538;2023-08-30T23:08:09;13.70;79.70
80577;DHT22;69937;52.420;10.538;2023-08-30T23:13:09;13.70;79.60
80577;DHT22;69937;52.420;10.538;2023-08-30T23:18:10;13.70;79.70
80577;DHT22;69937;52.420;10.538;2023-08-30T23:23:10;13.70;79.70
80577;DHT22;69937;52.420;10.538;2023-08-30T23:28:12;13.70;79.70
80577;DHT22;69937;52.420;10.538;2023-08-30T23:33:14;13.70;79.60
80577;DHT22;69937;52.420;10.538;2023-08-30T23:38:14;13.60;79.70
80577;DHT22;69937;52.420;10.538;2023-08-30T23:43:15;13.60;79.70
80577;DHT22;69937;52.420;10.538;2023-08-30T23:48:16;13.60;79.70
80577;DHT22;69937;52.420;10.538;2023-08-30T23:53:16;13.50;79.90
80577;DHT22;69937;52.420;10.538;2023-08-30T23:58:17;13.50;79.90
